sensor_id;sensor_type;location;lat;lon;timestamp;P1;durP1;ratioP1;P2;durP2;ratioP2
29712;SDS011;16623;53.632;10.016;2024-03-08T00:01:59;33.00;;;14.98;;
29712;SDS011;16623;53.632;10.016;2024-03-08T00:04:25;29.20;;;14.30;;
29712;SDS011;16623;53.632;10.016;2024-03-08T00:06:51;33.50;;;14.65;;
29712;SDS011;16623;53.632;10.016;2024-03-08T00:09:17;31.30;;;16.30;;
29712;SDS011;16623;53.632;10.016;2024-03-08T00:11:42;33.40;;;16.48;;
29712;SDS011;16623;53.632;10.016;2024-03-08T00:14:08;30.75;;;15.85;;
29712;SDS011;16623;53.632;10.016;2024-03-08T00:16:33;31.20;;;14.77;;
29712;SDS011;16623;53.632;10.016;2024-03-08T00:19:00;33.00;;;16.90;;
29712;SDS011;16623;53.632;10.016;2024-03-08T00:21:26;25.60;;;13.98;;
29712;SDS011;16623;53.632;10.016;2024-03-08T00:23:54;34.70;;;16.23;;
29712;SDS011;16623;53.632;10.016;2024-03-08T00:26:20;36.70;;;15.52;;
29712;SDS011;16623;53.632;10.016;2024-03-08T00:28:47;28.65;;;14.63;;
29712;SDS011;16623;53.632;10.016;2024-03-08T00:31:16;32.58;;;14.98;;
29712;SDS011;16623;53.632;10.016;2024-03-08T00:33:42;35.17;;;16.27;;
29712;SDS011;16623;53.632;10.016;2024-03-08T00:36:07;33.58;;;15.50;;
29712;SDS011;16623;53.632;10.016;2024-03-08T00:38:33;30.45;;;15.05;;
29712;SDS011;16623;53.632;10.016;2024-03-08T00:40:59;30.38;;;15.45;;
29712;SDS011;16623;53.632;10.016;2024-03-08T00:43:25;36.63;;;16.63;;
29712;SDS011;16623;53.632;10.016;2024-03-08T00:45:50;34.53;;;15.32;;
29712;SDS011;16623;53.632;10.016;2024-03-08T00:48:17;38.70;;;16.85;;
29712;SDS011;16623;53.632;10.016;2024-03-08T00:50:43;30.77;;;13.95;;
29712;SDS011;16623;53.632;10.016;2024-03-08T00:53:10;31.02;;;15.82;;
29712;SDS011;16623;53.632;10.016;2024-03-08T00:55:37;27.52;;;13.45;;
29712;SDS011;16623;53.632;10.016;2024-03-08T00:58:03;34.70;;;14.27;;
29712;SDS011;16623;53.632;10.016;2024-03-08T01:00:29;34.38;;;17.05;;
29712;SDS011;16623;53.632;10.016;2024-03-08T01:02:54;29.95;;;15.45;;
29712;SDS011;16623;53.632;10.016;2024-03-08T01:05:22;34.80;;;16.13;;
29712;SDS011;16623;53.632;10.016;2024-03-08T01:07:49;37.97;;;15.77;;
29712;SDS011;16623;53.632;10.016;2024-03-08T01:10:15;35.20;;;14.52;;
29712;SDS011;16623;53.632;10.016;2024-03-08T01:12:41;31.70;;;14.38;;
29712;SDS011;16623;53.632;10.016;2024-03-08T01:15:08;30.77;;;14.95;;
29712;SDS011;16623;53.632;10.016;2024-03-08T01:17:34;31.63;;;14.80;;
29712;SDS011;16623;53.632;10.016;2024-03-08T01:19:59;27.52;;;13.38;;
29712;SDS011;16623;53.632;10.016;2024-03-08T01:22:25;30.80;;;15.63;;
29712;SDS011;16623;53.632;10.016;2024-03-08T01:24:50;29.88;;;14.40;;
29712;SDS011;16623;53.632;10.016;2024-03-08T01:27:16;40.83;;;17.42;;
29712;SDS011;16623;53.632;10.016;2024-03-08T01:29:42;29.83;;;14.48;;
29712;SDS011;16623;53.632;10.016;2024-03-08T01:32:07;36.88;;;15.02;;
29712;SDS011;16623;53.632;10.016;2024-03-08T01:34:33;33.35;;;15.55;;
29712;SDS011;16623;53.632;10.016;2024-03-08T01:36:58;32.60;;;15.70;;
29712;SDS011;16623;53.632;10.016;2024-03-08T01:39:24;29.55;;;15.70;;
29712;SDS011;16623;53.632;10.016;2024-03-08T01:41:50;33.78;;;15.07;;
29712;SDS011;16623;53.632;10.016;2024-03-08T01:44:16;31.10;;;15.80;;
29712;SDS011;16623;53.632;10.016;2024-03-08T01:46:43;33.20;;;14.57;;
29712;SDS011;16623;53.632;10.016;2024-03-08T01:49:10;33.03;;;15.57;;
29712;SDS011;16623;53.632;10.016;2024-03-08T01:51:36;35.17;;;16.45;;
29712;SDS011;16623;53.632;10.016;2024-03-08T01:54:03;34.63;;;16.38;;
29712;SDS011;16623;53.632;10.016;2024-03-08T01:56:29;34.70;;;15.55;;
29712;SDS011;16623;53.632;10.016;2024-03-08T01:58:56;32.45;;;14.85;;
29712;SDS011;16623;53.632;10.016;2024-03-08T02:01:23;32.97;;;15.95;;
29712;SDS011;16623;53.632;10.016;2024-03-08T02:03:49;30.73;;;15.63;;
29712;SDS011;16623;53.632;10.016;2024-03-08T02:06:15;34.67;;;15.68;;
29712;SDS011;16623;53.632;10.016;2024-03-08T02:08:42;26.58;;;14.18;;
29712;SDS011;16623;53.632;10.016;2024-03-08T02:11:09;30.83;;;15.02;;
29712;SDS011;16623;53.632;10.016;2024-03-08T02:13:35;33.20;;;16.42;;
29712;SDS011;16623;53.632;10.016;2024-03-08T02:16:01;32.22;;;15.88;;
29712;SDS011;16623;53.632;10.016;2024-03-08T02:18:27;34.60;;;16.35;;
29712;SDS011;16623;53.632;10.016;2024-03-08T02:21:00;29.83;;;14.82;;
29712;SDS011;16623;53.632;10.016;2024-03-08T02:23:27;35.50;;;16.30;;
29712;SDS011;16623;53.632;10.016;2024-03-08T02:25:56;34.83;;;16.13;;
29712;SDS011;16623;53.632;10.016;2024-03-08T02:28:22;41.10;;;16.70;;
29712;SDS011;16623;53.632;10.016;2024-03-08T02:30:50;31.70;;;15.48;;
29712;SDS011;16623;53.632;10.016;2024-03-08T02:33:17;32.78;;;15.70;;
29712;SDS011;16623;53.632;10.016;2024-03-08T02:35:46;28.17;;;15.18;;
29712;SDS011;16623;53.632;10.016;2024-03-08T02:38:15;36.17;;;15.77;;
29712;SDS011;16623;53.632;10.016;2024-03-08T02:40:43;31.35;;;15.32;;
29712;SDS011;16623;53.632;10.016;2024-03-08T02:43:10;35.53;;;16.52;;
29712;SDS011;16623;53.632;10.016;2024-03-08T02:45:36;36.88;;;16.88;;
29712;SDS011;16623;53.632;10.016;2024-03-08T02:48:02;35.53;;;16.60;;
29712;SDS011;16623;53.632;10.016;2024-03-08T02:50:28;41.35;;;16.92;;
29712;SDS011;16623;53.632;10.016;2024-03-08T02:52:53;37.35;;;17.27;;
29712;SDS011;16623;53.632;10.016;2024-03-08T02:55:19;42.70;;;17.35;;
29712;SDS011;16623;53.632;10.016;2024-03-08T02:57:45;37.97;;;16.95;;
29712;SDS011;16623;53.632;10.016;2024-03-08T03:00:12;35.30;;;15.75;;
29712;SDS011;16623;53.632;10.016;2024-03-08T03:02:38;35.55;;;16.83;;
29712;SDS011;16623;53.632;10.016;2024-03-08T03:05:10;35.78;;;15.50;;
29712;SDS011;16623;53.632;10.016;2024-03-08T03:07:36;38.92;;;17.52;;
29712;SDS011;16623;53.632;10.016;2024-03-08T03:10:02;45.45;;;17.55;;
29712;SDS011;16623;53.632;10.016;2024-03-08T03:12:28;36.53;;;15.93;;
29712;SDS011;16623;53.632;10.016;2024-03-08T03:14:54;37.00;;;17.40;;
29712;SDS011;16623;53.632;10.016;2024-03-08T03:17:21;32.55;;;14.75;;
29712;SDS011;16623;53.632;10.016;2024-03-08T03:19:47;35.90;;;17.38;;
29712;SDS011;16623;53.632;10.016;2024-03-08T03:22:13;33.60;;;15.65;;
29712;SDS011;16623;53.632;10.016;2024-03-08T03:24:38;36.17;;;17.02;;
29712;SDS011;16623;53.632;10.016;2024-03-08T03:27:04;40.70;;;16.60;;
29712;SDS011;16623;53.632;10.016;2024-03-08T03:29:39;34.10;;;16.08;;
29712;SDS011;16623;53.632;10.016;2024-03-08T03:32:07;40.30;;;17.70;;
29712;SDS011;16623;53.632;10.016;2024-03-08T03:34:33;34.33;;;16.58;;
29712;SDS011;16623;53.632;10.016;2024-03-08T03:37:01;36.42;;;15.45;;
29712;SDS011;16623;53.632;10.016;2024-03-08T03:39:27;40.50;;;17.58;;
29712;SDS011;16623;53.632;10.016;2024-03-08T03:41:56;36.30;;;16.77;;
29712;SDS011;16623;53.632;10.016;2024-03-08T03:44:22;33.83;;;16.55;;
29712;SDS011;16623;53.632;10.016;2024-03-08T03:46:48;38.72;;;17.98;;
29712;SDS011;16623;53.632;10.016;2024-03-08T03:49:15;36.20;;;17.25;;
29712;SDS011;16623;53.632;10.016;2024-03-08T03:51:42;33.83;;;15.80;;
29712;SDS011;16623;53.632;10.016;2024-03-08T03:54:09;46.65;;;17.77;;
29712;SDS011;16623;53.632;10.016;2024-03-08T03:56:35;36.83;;;15.82;;
29712;SDS011;16623;53.632;10.016;2024-03-08T03:59:00;46.55;;;16.85;;
29712;SDS011;16623;53.632;10.016;2024-03-08T04:01:26;39.65;;;17.70;;
29712;SDS011;16623;53.632;10.016;2024-03-08T04:03:52;41.85;;;17.73;;
29712;SDS011;16623;53.632;10.016;2024-03-08T04:06:17;38.08;;;16.98;;
29712;SDS011;16623;53.632;10.016;2024-03-08T04:08:42;35.40;;;15.82;;
29712;SDS011;16623;53.632;10.016;2024-03-08T04:11:08;40.30;;;17.98;;
29712;SDS011;16623;53.632;10.016;2024-03-08T04:13:34;38.15;;;16.08;;
29712;SDS011;16623;53.632;10.016;2024-03-08T04:16:01;40.97;;;18.17;;
29712;SDS011;16623;53.632;10.016;2024-03-08T04:18:27;40.83;;;17.08;;
29712;SDS011;16623;53.632;10.016;2024-03-08T04:20:53;35.38;;;16.02;;
29712;SDS011;16623;53.632;10.016;2024-03-08T04:23:18;38.92;;;16.27;;
29712;SDS011;16623;53.632;10.016;2024-03-08T04:25:44;39.75;;;18.15;;
29712;SDS011;16623;53.632;10.016;2024-03-08T04:28:10;41.35;;;17.90;;
29712;SDS011;16623;53.632;10.016;2024-03-08T04:30:38;37.05;;;16.02;;
29712;SDS011;16623;53.632;10.016;2024-03-08T04:33:07;36.33;;;16.33;;
29712;SDS011;16623;53.632;10.016;2024-03-08T04:35:33;42.92;;;15.95;;
29712;SDS011;16623;53.632;10.016;2024-03-08T04:37:59;32.80;;;14.93;;
29712;SDS011;16623;53.632;10.016;2024-03-08T04:40:25;37.95;;;17.90;;
29712;SDS011;16623;53.632;10.016;2024-03-08T04:42:50;33.85;;;15.43;;
29712;SDS011;16623;53.632;10.016;2024-03-08T04:45:17;43.80;;;18.60;;
29712;SDS011;16623;53.632;10.016;2024-03-08T04:47:42;39.45;;;16.20;;
29712;SDS011;16623;53.632;10.016;2024-03-08T04:50:08;46.47;;;16.88;;
29712;SDS011;16623;53.632;10.016;2024-03-08T04:52:34;41.10;;;18.23;;
29712;SDS011;16623;53.632;10.016;2024-03-08T04:55:01;36.03;;;15.10;;
29712;SDS011;16623;53.632;10.016;2024-03-08T04:57:30;37.83;;;16.88;;
29712;SDS011;16623;53.632;10.016;2024-03-08T04:59:55;38.63;;;17.83;;
29712;SDS011;16623;53.632;10.016;2024-03-08T05:02:23;39.67;;;16.88;;
29712;SDS011;16623;53.632;10.016;2024-03-08T05:04:48;35.60;;;16.15;;
29712;SDS011;16623;53.632;10.016;2024-03-08T05:07:15;43.58;;;18.35;;
29712;SDS011;16623;53.632;10.016;2024-03-08T05:09:41;35.75;;;15.38;;
29712;SDS011;16623;53.632;10.016;2024-03-08T05:12:07;33.63;;;17.08;;
29712;SDS011;16623;53.632;10.016;2024-03-08T05:14:33;32.10;;;15.75;;
29712;SDS011;16623;53.632;10.016;2024-03-08T05:17:00;34.38;;;16.45;;
29712;SDS011;16623;53.632;10.016;2024-03-08T05:19:25;41.10;;;17.15;;
29712;SDS011;16623;53.632;10.016;2024-03-08T05:21:51;40.58;;;15.60;;
29712;SDS011;16623;53.632;10.016;2024-03-08T05:24:17;38.88;;;18.00;;
29712;SDS011;16623;53.632;10.016;2024-03-08T05:26:43;41.53;;;17.90;;
29712;SDS011;16623;53.632;10.016;2024-03-08T05:29:09;42.13;;;18.58;;
29712;SDS011;16623;53.632;10.016;2024-03-08T05:31:42;45.75;;;18.15;;
29712;SDS011;16623;53.632;10.016;2024-03-08T05:34:13;41.33;;;17.17;;
29712;SDS011;16623;53.632;10.016;2024-03-08T05:36:39;42.72;;;16.45;;
29712;SDS011;16623;53.632;10.016;2024-03-08T05:39:05;36.80;;;18.08;;
29712;SDS011;16623;53.632;10.016;2024-03-08T05:41:31;43.17;;;18.27;;
29712;SDS011;16623;53.632;10.016;2024-03-08T05:43:57;46.38;;;19.67;;
29712;SDS011;16623;53.632;10.016;2024-03-08T05:46:22;51.25;;;18.40;;
29712;SDS011;16623;53.632;10.016;2024-03-08T05:48:48;36.60;;;16.13;;
29712;SDS011;16623;53.632;10.016;2024-03-08T05:51:14;46.97;;;17.10;;
29712;SDS011;16623;53.632;10.016;2024-03-08T05:53:39;44.90;;;18.58;;
29712;SDS011;16623;53.632;10.016;2024-03-08T05:56:05;43.38;;;18.50;;
29712;SDS011;16623;53.632;10.016;2024-03-08T05:58:31;41.28;;;17.17;;
29712;SDS011;16623;53.632;10.016;2024-03-08T06:00:56;43.90;;;19.08;;
29712;SDS011;16623;53.632;10.016;2024-03-08T06:03:22;40.63;;;17.73;;
29712;SDS011;16623;53.632;10.016;2024-03-08T06:05:48;39.40;;;18.10;;
29712;SDS011;16623;53.632;10.016;2024-03-08T06:08:14;43.17;;;18.60;;
29712;SDS011;16623;53.632;10.016;2024-03-08T06:10:40;44.65;;;19.45;;
29712;SDS011;16623;53.632;10.016;2024-03-08T06:13:05;34.08;;;14.57;;
29712;SDS011;16623;53.632;10.016;2024-03-08T06:15:31;44.35;;;19.13;;
29712;SDS011;16623;53.632;10.016;2024-03-08T06:17:57;37.55;;;16.83;;
29712;SDS011;16623;53.632;10.016;2024-03-08T06:20:23;54.35;;;22.25;;
29712;SDS011;16623;53.632;10.016;2024-03-08T06:22:51;46.90;;;20.95;;
29712;SDS011;16623;53.632;10.016;2024-03-08T06:25:17;39.85;;;17.42;;
29712;SDS011;16623;53.632;10.016;2024-03-08T06:27:43;47.88;;;20.05;;
29712;SDS011;16623;53.632;10.016;2024-03-08T06:30:09;36.42;;;19.20;;
29712;SDS011;16623;53.632;10.016;2024-03-08T06:32:38;40.25;;;19.00;;
29712;SDS011;16623;53.632;10.016;2024-03-08T06:35:04;47.88;;;19.23;;
29712;SDS011;16623;53.632;10.016;2024-03-08T06:37:31;43.85;;;19.23;;
29712;SDS011;16623;53.632;10.016;2024-03-08T06:39:57;44.80;;;20.17;;
29712;SDS011;16623;53.632;10.016;2024-03-08T06:42:23;47.35;;;20.27;;
29712;SDS011;16623;53.632;10.016;2024-03-08T06:44:51;39.58;;;17.08;;
29712;SDS011;16623;53.632;10.016;2024-03-08T06:47:16;57.33;;;21.45;;
29712;SDS011;16623;53.632;10.016;2024-03-08T06:49:42;48.05;;;21.02;;
29712;SDS011;16623;53.632;10.016;2024-03-08T06:52:08;51.97;;;21.90;;
29712;SDS011;16623;53.632;10.016;2024-03-08T06:54:35;49.80;;;22.05;;
29712;SDS011;16623;53.632;10.016;2024-03-08T06:57:03;48.72;;;19.58;;
29712;SDS011;16623;53.632;10.016;2024-03-08T06:59:30;48.88;;;21.58;;
29712;SDS011;16623;53.632;10.016;2024-03-08T07:01:56;48.22;;;19.33;;
29712;SDS011;16623;53.632;10.016;2024-03-08T07:04:21;42.03;;;19.15;;
29712;SDS011;16623;53.632;10.016;2024-03-08T07:06:51;45.70;;;20.63;;
29712;SDS011;16623;53.632;10.016;2024-03-08T07:09:16;37.80;;;14.70;;
29712;SDS011;16623;53.632;10.016;2024-03-08T07:11:43;46.15;;;21.60;;
29712;SDS011;16623;53.632;10.016;2024-03-08T07:14:09;41.97;;;17.45;;
29712;SDS011;16623;53.632;10.016;2024-03-08T07:16:35;51.17;;;22.70;;
29712;SDS011;16623;53.632;10.016;2024-03-08T07:19:01;52.50;;;23.42;;
29712;SDS011;16623;53.632;10.016;2024-03-08T07:21:28;39.83;;;18.83;;
29712;SDS011;16623;53.632;10.016;2024-03-08T07:23:54;40.03;;;18.92;;
29712;SDS011;16623;53.632;10.016;2024-03-08T07:26:25;44.33;;;20.63;;
29712;SDS011;16623;53.632;10.016;2024-03-08T07:28:51;44.60;;;20.40;;
29712;SDS011;16623;53.632;10.016;2024-03-08T07:31:16;45.92;;;19.88;;
29712;SDS011;16623;53.632;10.016;2024-03-08T07:33:51;43.40;;;20.08;;
29712;SDS011;16623;53.632;10.016;2024-03-08T07:36:18;46.63;;;21.02;;
29712;SDS011;16623;53.632;10.016;2024-03-08T07:38:44;42.20;;;19.42;;
29712;SDS011;16623;53.632;10.016;2024-03-08T07:41:12;46.67;;;20.95;;
29712;SDS011;16623;53.632;10.016;2024-03-08T07:43:38;43.17;;;20.27;;
29712;SDS011;16623;53.632;10.016;2024-03-08T07:46:03;41.08;;;20.08;;
29712;SDS011;16623;53.632;10.016;2024-03-08T07:48:29;36.85;;;15.05;;
29712;SDS011;16623;53.632;10.016;2024-03-08T07:50:55;38.60;;;19.08;;
29712;SDS011;16623;53.632;10.016;2024-03-08T07:53:21;45.67;;;19.33;;
29712;SDS011;16623;53.632;10.016;2024-03-08T07:55:46;36.13;;;18.08;;
29712;SDS011;16623;53.632;10.016;2024-03-08T07:58:12;38.63;;;19.23;;
29712;SDS011;16623;53.632;10.016;2024-03-08T08:00:38;36.50;;;16.75;;
29712;SDS011;16623;53.632;10.016;2024-03-08T08:03:04;35.75;;;18.45;;
29712;SDS011;16623;53.632;10.016;2024-03-08T08:05:30;40.92;;;20.05;;
29712;SDS011;16623;53.632;10.016;2024-03-08T08:08:01;34.58;;;19.05;;
29712;SDS011;16623;53.632;10.016;2024-03-08T08:10:29;39.38;;;18.20;;
29712;SDS011;16623;53.632;10.016;2024-03-08T08:12:54;38.00;;;18.27;;
29712;SDS011;16623;53.632;10.016;2024-03-08T08:15:22;39.95;;;18.65;;
29712;SDS011;16623;53.632;10.016;2024-03-08T08:17:47;35.42;;;18.67;;
29712;SDS011;16623;53.632;10.016;2024-03-08T08:20:13;37.08;;;18.13;;
29712;SDS011;16623;53.632;10.016;2024-03-08T08:22:39;38.20;;;18.45;;
29712;SDS011;16623;53.632;10.016;2024-03-08T08:25:05;29.38;;;15.82;;
29712;SDS011;16623;53.632;10.016;2024-03-08T08:27:31;36.53;;;16.02;;
29712;SDS011;16623;53.632;10.016;2024-03-08T08:29:57;37.50;;;15.85;;
29712;SDS011;16623;53.632;10.016;2024-03-08T08:32:22;36.85;;;18.23;;
29712;SDS011;16623;53.632;10.016;2024-03-08T08:34:48;35.30;;;16.98;;
29712;SDS011;16623;53.632;10.016;2024-03-08T08:37:13;28.63;;;14.07;;
29712;SDS011;16623;53.632;10.016;2024-03-08T08:39:39;30.55;;;15.88;;
29712;SDS011;16623;53.632;10.016;2024-03-08T08:42:05;39.08;;;19.92;;
29712;SDS011;16623;53.632;10.016;2024-03-08T08:44:34;39.47;;;18.65;;
29712;SDS011;16623;53.632;10.016;2024-03-08T08:47:00;37.08;;;17.00;;
29712;SDS011;16623;53.632;10.016;2024-03-08T08:49:25;33.70;;;16.35;;
29712;SDS011;16623;53.632;10.016;2024-03-08T08:51:51;34.10;;;16.88;;
29712;SDS011;16623;53.632;10.016;2024-03-08T08:54:17;39.20;;;19.95;;
29712;SDS011;16623;53.632;10.016;2024-03-08T08:56:45;31.00;;;15.55;;
29712;SDS011;16623;53.632;10.016;2024-03-08T08:59:10;34.22;;;17.98;;
29712;SDS011;16623;53.632;10.016;2024-03-08T09:01:39;34.17;;;18.20;;
29712;SDS011;16623;53.632;10.016;2024-03-08T09:04:06;35.20;;;16.45;;
29712;SDS011;16623;53.632;10.016;2024-03-08T09:06:33;33.67;;;13.13;;
29712;SDS011;16623;53.632;10.016;2024-03-08T09:08:59;34.22;;;17.83;;
29712;SDS011;16623;53.632;10.016;2024-03-08T09:11:24;39.25;;;19.23;;
29712;SDS011;16623;53.632;10.016;2024-03-08T09:13:53;39.83;;;19.45;;
29712;SDS011;16623;53.632;10.016;2024-03-08T09:16:18;27.60;;;13.68;;
29712;SDS011;16623;53.632;10.016;2024-03-08T09:18:44;33.10;;;16.98;;
29712;SDS011;16623;53.632;10.016;2024-03-08T09:21:10;33.70;;;18.35;;
29712;SDS011;16623;53.632;10.016;2024-03-08T09:23:38;33.60;;;17.13;;
29712;SDS011;16623;53.632;10.016;2024-03-08T09:26:03;34.33;;;15.98;;
29712;SDS011;16623;53.632;10.016;2024-03-08T09:28:29;38.78;;;16.63;;
29712;SDS011;16623;53.632;10.016;2024-03-08T09:30:55;35.53;;;18.42;;
29712;SDS011;16623;53.632;10.016;2024-03-08T09:33:20;39.80;;;19.10;;
29712;SDS011;16623;53.632;10.016;2024-03-08T09:35:47;31.02;;;16.83;;
29712;SDS011;16623;53.632;10.016;2024-03-08T09:38:13;36.20;;;16.33;;
29712;SDS011;16623;53.632;10.016;2024-03-08T09:40:42;30.85;;;16.83;;
29712;SDS011;16623;53.632;10.016;2024-03-08T09:43:08;34.13;;;18.27;;
29712;SDS011;16623;53.632;10.016;2024-03-08T09:45:36;35.05;;;17.58;;
29712;SDS011;16623;53.632;10.016;2024-03-08T09:48:06;32.88;;;18.08;;
29712;SDS011;16623;53.632;10.016;2024-03-08T09:50:37;32.65;;;16.25;;
29712;SDS011;16623;53.632;10.016;2024-03-08T09:53:09;32.63;;;16.73;;
29712;SDS011;16623;53.632;10.016;2024-03-08T09:55:36;31.20;;;15.65;;
29712;SDS011;16623;53.632;10.016;2024-03-08T09:58:11;26.00;;;13.70;;
29712;SDS011;16623;53.632;10.016;2024-03-08T10:00:43;29.90;;;16.05;;
29712;SDS011;16623;53.632;10.016;2024-03-08T10:03:08;32.45;;;15.70;;
29712;SDS011;16623;53.632;10.016;2024-03-08T10:05:35;28.73;;;14.07;;
29712;SDS011;16623;53.632;10.016;2024-03-08T10:08:01;32.92;;;16.23;;
29712;SDS011;16623;53.632;10.016;2024-03-08T10:10:27;33.00;;;15.77;;
29712;SDS011;16623;53.632;10.016;2024-03-08T10:12:52;32.03;;;16.52;;
29712;SDS011;16623;53.632;10.016;2024-03-08T10:15:18;37.08;;;17.98;;
29712;SDS011;16623;53.632;10.016;2024-03-08T10:17:45;28.42;;;15.63;;
29712;SDS011;16623;53.632;10.016;2024-03-08T10:20:14;32.90;;;15.73;;
29712;SDS011;16623;53.632;10.016;2024-03-08T10:22:43;29.50;;;16.10;;
29712;SDS011;16623;53.632;10.016;2024-03-08T10:25:09;28.20;;;14.13;;
29712;SDS011;16623;53.632;10.016;2024-03-08T10:27:36;29.65;;;15.65;;
29712;SDS011;16623;53.632;10.016;2024-03-08T10:30:04;35.72;;;16.63;;
29712;SDS011;16623;53.632;10.016;2024-03-08T10:32:31;33.63;;;15.68;;
29712;SDS011;16623;53.632;10.016;2024-03-08T10:34:56;33.35;;;16.10;;
29712;SDS011;16623;53.632;10.016;2024-03-08T10:37:22;30.33;;;15.00;;
29712;SDS011;16623;53.632;10.016;2024-03-08T10:39:53;33.50;;;16.25;;
29712;SDS011;16623;53.632;10.016;2024-03-08T10:42:35;31.80;;;14.50;;
29712;SDS011;16623;53.632;10.016;2024-03-08T10:45:06;28.98;;;14.73;;
29712;SDS011;16623;53.632;10.016;2024-03-08T10:52:51;23.90;;;12.77;;
29712;SDS011;16623;53.632;10.016;2024-03-08T10:55:17;35.33;;;16.98;;
29712;SDS011;16623;53.632;10.016;2024-03-08T10:57:45;26.08;;;14.88;;
29712;SDS011;16623;53.632;10.016;2024-03-08T11:00:12;25.83;;;14.27;;
29712;SDS011;16623;53.632;10.016;2024-03-08T11:02:39;28.48;;;15.55;;
29712;SDS011;16623;53.632;10.016;2024-03-08T11:05:15;26.13;;;13.82;;
29712;SDS011;16623;53.632;10.016;2024-03-08T11:10:50;32.10;;;15.85;;
29712;SDS011;16623;53.632;10.016;2024-03-08T11:16:12;24.60;;;11.27;;
29712;SDS011;16623;53.632;10.016;2024-03-08T11:19:00;29.83;;;15.00;;
29712;SDS011;16623;53.632;10.016;2024-03-08T11:21:33;27.95;;;14.32;;
29712;SDS011;16623;53.632;10.016;2024-03-08T11:23:59;30.05;;;15.63;;
29712;SDS011;16623;53.632;10.016;2024-03-08T11:26:25;31.48;;;14.25;;
29712;SDS011;16623;53.632;10.016;2024-03-08T11:28:51;28.45;;;14.82;;
29712;SDS011;16623;53.632;10.016;2024-03-08T11:31:22;26.08;;;14.52;;
29712;SDS011;16623;53.632;10.016;2024-03-08T11:33:48;29.73;;;15.38;;
29712;SDS011;16623;53.632;10.016;2024-03-08T11:36:24;31.13;;;14.52;;
29712;SDS011;16623;53.632;10.016;2024-03-08T11:38:50;25.33;;;13.43;;
29712;SDS011;16623;53.632;10.016;2024-03-08T11:41:18;31.08;;;14.93;;
29712;SDS011;16623;53.632;10.016;2024-03-08T11:43:45;27.33;;;14.40;;
29712;SDS011;16623;53.632;10.016;2024-03-08T11:46:11;31.30;;;14.70;;
29712;SDS011;16623;53.632;10.016;2024-03-08T11:48:42;34.97;;;17.90;;
29712;SDS011;16623;53.632;10.016;2024-03-08T11:51:08;27.15;;;13.65;;
29712;SDS011;16623;53.632;10.016;2024-03-08T11:53:38;20.60;;;9.82;;
29712;SDS011;16623;53.632;10.016;2024-03-08T11:56:06;26.55;;;12.85;;
29712;SDS011;16623;53.632;10.016;2024-03-08T11:58:37;28.17;;;13.40;;
29712;SDS011;16623;53.632;10.016;2024-03-08T12:01:04;25.48;;;11.98;;
29712;SDS011;16623;53.632;10.016;2024-03-08T12:03:30;30.30;;;14.85;;
29712;SDS011;16623;53.632;10.016;2024-03-08T12:05:58;29.15;;;15.45;;
29712;SDS011;16623;53.632;10.016;2024-03-08T12:08:25;27.02;;;11.48;;
29712;SDS011;16623;53.632;10.016;2024-03-08T12:10:53;26.45;;;14.27;;
29712;SDS011;16623;53.632;10.016;2024-03-08T12:13:24;29.48;;;13.43;;
29712;SDS011;16623;53.632;10.016;2024-03-08T12:15:55;29.52;;;15.00;;
29712;SDS011;16623;53.632;10.016;2024-03-08T12:18:27;27.98;;;13.77;;
29712;SDS011;16623;53.632;10.016;2024-03-08T12:23:37;26.00;;;13.95;;
29712;SDS011;16623;53.632;10.016;2024-03-08T12:28:40;26.67;;;13.88;;
29712;SDS011;16623;53.632;10.016;2024-03-08T12:31:07;29.55;;;14.27;;
29712;SDS011;16623;53.632;10.016;2024-03-08T12:33:51;19.42;;;11.50;;
29712;SDS011;16623;53.632;10.016;2024-03-08T12:36:18;26.77;;;13.05;;
29712;SDS011;16623;53.632;10.016;2024-03-08T12:38:46;24.88;;;12.20;;
29712;SDS011;16623;53.632;10.016;2024-03-08T12:41:15;22.83;;;13.32;;
29712;SDS011;16623;53.632;10.016;2024-03-08T12:43:43;25.67;;;12.57;;
29712;SDS011;16623;53.632;10.016;2024-03-08T12:46:18;28.63;;;11.98;;
29712;SDS011;16623;53.632;10.016;2024-03-08T12:48:47;21.35;;;10.90;;
29712;SDS011;16623;53.632;10.016;2024-03-08T12:51:16;22.77;;;12.60;;
29712;SDS011;16623;53.632;10.016;2024-03-08T12:53:43;29.67;;;12.93;;
29712;SDS011;16623;53.632;10.016;2024-03-08T12:56:09;23.25;;;12.80;;
29712;SDS011;16623;53.632;10.016;2024-03-08T12:58:35;27.95;;;13.27;;
29712;SDS011;16623;53.632;10.016;2024-03-08T13:01:02;23.05;;;12.32;;
29712;SDS011;16623;53.632;10.016;2024-03-08T13:03:30;23.02;;;13.15;;
29712;SDS011;16623;53.632;10.016;2024-03-08T13:05:56;21.75;;;11.55;;
29712;SDS011;16623;53.632;10.016;2024-03-08T13:08:22;18.27;;;10.55;;
29712;SDS011;16623;53.632;10.016;2024-03-08T13:10:50;24.20;;;12.52;;
29712;SDS011;16623;53.632;10.016;2024-03-08T13:13:16;14.10;;;8.43;;
29712;SDS011;16623;53.632;10.016;2024-03-08T13:15:42;24.65;;;11.90;;
29712;SDS011;16623;53.632;10.016;2024-03-08T13:18:07;23.05;;;11.77;;
29712;SDS011;16623;53.632;10.016;2024-03-08T13:20:34;23.58;;;11.48;;
29712;SDS011;16623;53.632;10.016;2024-03-08T13:23:02;25.52;;;11.57;;
29712;SDS011;16623;53.632;10.016;2024-03-08T13:25:29;25.33;;;13.50;;
29712;SDS011;16623;53.632;10.016;2024-03-08T13:27:56;26.13;;;13.00;;
29712;SDS011;16623;53.632;10.016;2024-03-08T13:30:24;23.77;;;11.57;;
29712;SDS011;16623;53.632;10.016;2024-03-08T13:32:52;21.98;;;11.75;;
29712;SDS011;16623;53.632;10.016;2024-03-08T13:35:18;27.33;;;12.02;;
29712;SDS011;16623;53.632;10.016;2024-03-08T13:37:49;22.05;;;11.55;;
29712;SDS011;16623;53.632;10.016;2024-03-08T13:40:16;22.20;;;11.02;;
29712;SDS011;16623;53.632;10.016;2024-03-08T13:42:44;19.58;;;10.57;;
29712;SDS011;16623;53.632;10.016;2024-03-08T13:45:14;23.70;;;12.60;;
29712;SDS011;16623;53.632;10.016;2024-03-08T13:47:42;21.23;;;12.25;;
29712;SDS011;16623;53.632;10.016;2024-03-08T13:50:09;16.90;;;8.65;;
29712;SDS011;16623;53.632;10.016;2024-03-08T13:52:41;22.35;;;10.60;;
29712;SDS011;16623;53.632;10.016;2024-03-08T13:55:09;21.75;;;11.75;;
29712;SDS011;16623;53.632;10.016;2024-03-08T13:57:35;20.65;;;9.60;;
29712;SDS011;16623;53.632;10.016;2024-03-08T14:00:01;19.60;;;10.15;;
29712;SDS011;16623;53.632;10.016;2024-03-08T14:02:26;20.65;;;10.50;;
29712;SDS011;16623;53.632;10.016;2024-03-08T14:04:54;18.67;;;10.45;;
29712;SDS011;16623;53.632;10.016;2024-03-08T14:07:20;21.65;;;11.10;;
29712;SDS011;16623;53.632;10.016;2024-03-08T14:09:46;17.85;;;10.43;;
29712;SDS011;16623;53.632;10.016;2024-03-08T14:12:11;22.40;;;11.30;;
29712;SDS011;16623;53.632;10.016;2024-03-08T14:14:40;25.48;;;11.65;;
29712;SDS011;16623;53.632;10.016;2024-03-08T14:17:07;32.28;;;12.10;;
29712;SDS011;16623;53.632;10.016;2024-03-08T14:19:35;24.88;;;13.43;;
29712;SDS011;16623;53.632;10.016;2024-03-08T14:22:00;27.88;;;13.48;;
29712;SDS011;16623;53.632;10.016;2024-03-08T14:24:32;19.25;;;9.10;;